Time;durP1;ratioP1;P1;durP2;ratioP2;P2;SDS_P1;SDS_P2;PMS_P1;PMS_P2;Temp;Humidity;BMP_temperature;BMP_pressure;BME280_temperature;BME280_humidity;BME280_pressure;Samples;Min_cycle;Max_cycle;Signal;HPM_P1;HPM_P2
2023/03/12 04:02:38;;;;;;;14.47;9.57;;;-0.80;99.90;;;;;;4898252;29;20232;-81
2023/03/12 04:05:04;;;;;;;9.30;8.40;;;-0.80;99.90;;;;;;4900616;29;20564;-80
2023/03/12 04:07:30;;;;;;;9.40;8.50;;;-0.80;99.90;;;;;;4895441;29;20536;-81
2023/03/12 04:09:57;;;;;;;11.53;9.33;;;-0.80;99.90;;;;;;4883553;29;20187;-80
2023/03/12 04:12:24;;;;;;;11.33;10.20;;;-0.80;99.90;;;;;;4888738;29;20295;-80
2023/03/12 04:14:51;;;;;;;10.03;9.10;;;-0.80;99.90;;;;;;4881209;29;20184;-79
2023/03/12 04:17:17;;;;;;;11.47;10.10;;;-0.80;99.90;;;;;;4895928;29;20199;-82
2023/03/12 04:19:43;;;;;;;10.13;9.23;;;-0.80;99.90;;;;;;4879291;29;20195;-79
2023/03/12 04:22:09;;;;;;;10.67;9.73;;;-0.80;99.90;;;;;;4880499;29;20291;-81
2023/03/12 04:24:35;;;;;;;10.90;9.80;;;-0.80;99.90;;;;;;4881287;29;20183;-82
2023/03/12 04:27:01;;;;;;;12.43;9.40;;;-0.70;99.90;;;;;;4895185;29;20640;-80
2023/03/12 04:29:27;;;;;;;9.87;9.03;;;-0.60;99.90;;;;;;4880437;29;20645;-81
2023/03/12 04:31:53;;;;;;;10.10;8.73;;;-0.60;99.90;;;;;;4879801;29;20680;-81
2023/03/12 04:34:19;;;;;;;13.50;9.30;;;-0.60;99.90;;;;;;4880579;29;20221;-81
2023/03/12 04:36:45;;;;;;;10.80;8.87;;;-0.50;99.90;;;;;;4895072;29;20188;-80
2023/03/12 04:39:11;;;;;;;10.53;9.50;;;-0.50;99.90;;;;;;4892991;29;20581;-80
2023/03/12 04:41:37;;;;;;;11.47;9.97;;;-0.40;99.90;;;;;;4904636;29;20227;-81
2023/03/12 04:44:03;;;;;;;11.80;10.10;;;-0.40;99.90;;;;;;4901382;29;20287;-81
2023/03/12 04:46:29;;;;;;;12.83;10.40;;;-0.30;99.90;;;;;;4898096;29;20223;-80
2023/03/12 04:49:01;;;;;;;11.77;10.60;;;-0.20;99.90;;;;;;4897976;29;20195;-81
2023/03/12 04:51:28;;;;;;;10.30;9.50;;;-0.20;99.90;;;;;;4906244;29;20689;-80
2023/03/12 04:53:54;;;;;;;12.23;10.40;;;-0.20;99.90;;;;;;4907096;29;20187;-81
2023/03/12 04:56:21;;;;;;;10.60;9.73;;;-0.10;99.90;;;;;;4906186;29;20630;-80
2023/03/12 04:58:46;;;;;;;10.23;9.27;;;-0.20;99.90;;;;;;4899384;29;20215;-82
2023/03/12 05:01:28;;;;;;;10.33;9.40;;;-0.10;99.90;;;;;;4898157;29;20229;-81
2023/03/12 05:03:54;;;;;;;11.67;9.10;;;-0.10;99.90;;;;;;4898971;29;20191;-82
2023/03/12 05:06:21;;;;;;;14.73;9.53;;;-0.10;99.90;;;;;;4897875;29;20184;-82
2023/03/12 05:08:47;;;;;;;11.07;9.97;;;0.00;99.90;;;;;;4879683;29;20557;-82
2023/03/12 05:11:14;;;;;;;10.63;9.67;;;0.00;99.90;;;;;;4880162;29;20204;-80
2023/03/12 05:13:40;;;;;;;14.83;9.47;;;0.00;99.90;;;;;;4879719;29;20191;-81
2023/03/12 05:16:07;;;;;;;10.13;9.27;;;0.10;99.90;;;;;;4900292;29;20204;-81
2023/03/12 05:18:33;;;;;;;9.83;8.57;;;0.10;99.90;;;;;;4882513;29;20188;-80
2023/03/12 05:21:01;;;;;;;11.07;9.77;;;0.10;99.90;;;;;;4878248;29;20288;-80
2023/03/12 05:23:28;;;;;;;10.13;9.20;;;0.10;99.90;;;;;;4896184;29;20226;-79
2023/03/12 05:25:55;;;;;;;9.87;8.87;;;0.10;99.90;;;;;;4896196;29;20187;-81
2023/03/12 05:28:26;;;;;;;10.07;9.13;;;0.10;99.90;;;;;;4896558;29;20198;-76
2023/03/12 05:30:54;;;;;;;11.13;10.03;;;0.10;99.90;;;;;;4895538;29;20236;-75
2023/03/12 05:33:20;;;;;;;10.37;9.57;;;0.10;99.90;;;;;;4894249;29;20192;-76
2023/03/12 05:35:46;;;;;;;14.27;9.77;;;0.10;99.90;;;;;;4891698;29;20196;-76
2023/03/12 05:38:11;;;;;;;9.77;8.70;;;0.20;99.90;;;;;;4884942;29;20192;-76
2023/03/12 05:40:37;;;;;;;12.17;9.30;;;0.20;99.90;;;;;;4878927;29;20216;-76
2023/03/12 05:43:03;;;;;;;10.23;9.30;;;0.20;99.90;;;;;;4893443;29;20222;-74
2023/03/12 05:45:29;;;;;;;12.43;9.63;;;0.20;99.90;;;;;;4899538;29;20273;-74
2023/03/12 05:47:54;;;;;;;10.27;9.20;;;0.30;99.90;;;;;;4898057;29;20583;-75
2023/03/12 05:50:20;;;;;;;10.70;9.60;;;0.30;99.90;;;;;;4897148;29;20541;-74
2023/03/12 05:52:46;;;;;;;9.80;8.83;;;0.40;99.90;;;;;;4897743;29;20172;-74
2023/03/12 05:55:12;;;;;;;10.40;9.50;;;0.50;99.90;;;;;;4898544;29;20729;-74
2023/03/12 05:57:37;;;;;;;10.00;9.10;;;0.50;99.90;;;;;;4898667;29;20188;-74
2023/03/12 06:00:04;;;;;;;9.07;8.27;;;0.40;99.90;;;;;;4897413;29;20242;-74
2023/03/12 06:02:30;;;;;;;10.00;9.10;;;0.50;99.90;;;;;;4898337;29;20224;-74
2023/03/12 06:04:57;;;;;;;14.00;9.10;;;0.50;99.90;;;;;;4897504;29;20239;-75
2023/03/12 06:07:23;;;;;;;11.00;8.70;;;0.50;99.90;;;;;;4897936;29;20179;-74
2023/03/12 06:09:49;;;;;;;12.60;9.67;;;0.50;99.90;;;;;;4898131;29;20195;-77
2023/03/12 06:12:15;;;;;;;13.17;9.97;;;0.50;99.90;;;;;;4897130;29;20240;-74
2023/03/12 06:14:41;;;;;;;11.63;10.20;;;0.60;99.90;;;;;;4898546;29;20200;-76
2023/03/12 06:17:07;;;;;;;12.97;8.97;;;0.60;99.90;;;;;;4898941;29;20844;-76
2023/03/12 06:19:32;;;;;;;10.23;9.33;;;0.70;99.90;;;;;;4896496;29;20188;-76
2023/03/12 06:21:58;;;;;;;9.80;9.00;;;0.70;99.90;;;;;;4880014;29;20224;-76
2023/03/12 06:24:24;;;;;;;9.90;9.00;;;0.80;99.90;;;;;;4880780;29;20561;-75
2023/03/12 06:26:50;;;;;;;8.97;8.20;;;0.80;99.90;;;;;;4879749;29;20267;-75
2023/03/12 06:29:16;;;;;;;8.97;8.27;;;0.70;99.90;;;;;;4901975;29;20195;-76
2023/03/12 06:31:42;;;;;;;12.17;8.43;;;0.80;99.90;;;;;;4896721;29;20300;-76
2023/03/12 06:34:09;;;;;;;9.00;8.17;;;0.90;99.90;;;;;;4898254;29;20292;-75
2023/03/12 06:36:35;;;;;;;9.17;8.37;;;0.90;99.90;;;;;;4897740;29;20179;-76
2023/03/12 06:39:05;;;;;;;9.60;8.70;;;1.10;99.90;;;;;;4897101;29;20275;-75
2023/03/12 06:41:31;;;;;;;9.17;8.37;;;1.10;99.90;;;;;;4897253;29;20700;-76
2023/03/12 06:43:57;;;;;;;9.57;8.77;;;1.10;99.90;;;;;;4897205;29;20190;-75
2023/03/12 06:46:24;;;;;;;9.80;8.80;;;1.20;99.90;;;;;;4896000;29;20179;-75
2023/03/12 06:48:50;;;;;;;11.07;9.90;;;1.20;99.90;;;;;;4896181;29;20180;-76
2023/03/12 06:51:16;;;;;;;9.97;9.07;;;1.20;99.90;;;;;;4897875;29;20297;-75
2023/03/12 06:53:43;;;;;;;9.77;9.07;;;1.20;99.90;;;;;;4896661;29;20180;-76
2023/03/12 06:56:10;;;;;;;9.67;8.77;;;1.20;99.90;;;;;;4896575;29;20270;-75
2023/03/12 06:58:36;;;;;;;8.77;8.03;;;1.20;99.90;;;;;;4878745;29;20729;-76
2023/03/12 07:01:02;;;;;;;9.60;8.60;;;1.30;99.90;;;;;;4878557;29;20212;-75
2023/03/12 07:03:27;;;;;;;10.90;8.63;;;1.40;99.90;;;;;;4878358;29;20235;-75
2023/03/12 07:05:55;;;;;;;9.17;8.37;;;1.40;99.90;;;;;;4878483;29;20215;-75
2023/03/12 07:08:22;;;;;;;8.30;7.50;;;1.40;99.90;;;;;;4877079;29;20181;-76
2023/03/12 07:10:47;;;;;;;10.27;8.67;;;1.50;99.90;;;;;;4894322;29;20205;-76
2023/03/12 07:13:13;;;;;;;8.57;7.87;;;1.50;99.90;;;;;;4877557;29;20192;-75
2023/03/12 07:15:39;;;;;;;9.40;8.57;;;1.50;99.90;;;;;;4879002;29;20275;-75
2023/03/12 07:18:10;;;;;;;12.73;11.60;;;1.60;99.90;;;;;;4878955;29;20635;-76
2023/03/12 07:20:38;;;;;;;9.93;9.03;;;1.60;99.90;;;;;;4877138;29;20280;-75
2023/03/12 07:23:04;;;;;;;13.60;12.03;;;1.60;99.90;;;;;;4892798;29;20681;-75
2023/03/12 07:25:30;;;;;;;11.23;10.17;;;1.60;99.90;;;;;;4893751;29;20188;-75
2023/03/12 07:27:56;;;;;;;11.90;10.90;;;1.60;99.90;;;;;;4878535;29;20243;-75
2023/03/12 07:30:22;;;;;;;15.13;13.83;;;1.60;99.90;;;;;;4881225;29;20192;-75
2023/03/12 07:32:48;;;;;;;18.23;14.33;;;1.50;99.90;;;;;;4897090;29;20187;-75
2023/03/12 07:35:13;;;;;;;16.50;14.93;;;1.50;99.90;;;;;;4897163;29;20290;-75
2023/03/12 07:37:39;;;;;;;12.63;11.37;;;1.40;99.90;;;;;;4895657;29;20191;-75
2023/03/12 07:40:06;;;;;;;12.57;10.83;;;1.30;99.90;;;;;;4890522;29;20243;-74
2023/03/12 07:42:32;;;;;;;24.60;17.90;;;1.20;99.90;;;;;;4876829;29;20310;-75
2023/03/12 07:44:58;;;;;;;18.43;15.67;;;1.20;99.90;;;;;;4877083;29;20185;-75
2023/03/12 07:47:24;;;;;;;15.57;12.80;;;1.20;99.90;;;;;;4878107;29;20188;-75
2023/03/12 07:49:50;;;;;;;13.80;12.43;;;1.30;99.90;;;;;;4877403;29;20287;-76
2023/03/12 07:52:17;;;;;;;12.00;10.90;;;1.40;99.90;;;;;;4877037;29;20352;-74
2023/03/12 07:54:42;;;;;;;11.73;10.43;;;1.40;99.90;;;;;;4878058;29;20661;-74
2023/03/12 07:57:08;;;;;;;13.87;10.53;;;1.60;99.90;;;;;;4877955;29;20215;-75
2023/03/12 07:59:34;;;;;;;13.10;11.80;;;1.60;99.90;;;;;;4875940;29;20279;-74
2023/03/12 08:02:00;;;;;;;12.20;11.10;;;1.70;99.90;;;;;;4877560;29;20222;-74
2023/03/12 08:04:26;;;;;;;11.77;10.67;;;1.80;99.90;;;;;;4877419;29;20631;-74
2023/03/12 08:06:52;;;;;;;12.70;10.50;;;1.90;99.90;;;;;;4897104;29;20183;-75
2023/03/12 08:09:17;;;;;;;11.57;10.27;;;1.90;99.90;;;;;;4895139;29;20679;-74
2023/03/12 08:11:43;;;;;;;13.17;10.57;;;2.00;99.90;;;;;;4895200;29;20270;-74
2023/03/12 08:14:09;;;;;;;13.77;9.93;;;2.20;99.90;;;;;;4896352;29;20619;-74
2023/03/12 08:16:35;;;;;;;11.50;10.40;;;2.20;99.90;;;;;;4896351;29;20223;-73
2023/03/12 08:19:00;;;;;;;11.90;10.73;;;2.30;99.90;;;;;;4895741;29;20322;-74
2023/03/12 08:21:26;;;;;;;11.10;10.00;;;2.40;99.90;;;;;;4885904;29;20213;-75
2023/03/12 08:23:52;;;;;;;11.50;10.60;;;2.40;99.90;;;;;;4891886;29;20271;-75
2023/03/12 08:26:18;;;;;;;12.53;10.03;;;2.60;99.90;;;;;;4877732;29;20181;-74
2023/03/12 08:28:43;;;;;;;10.17;9.10;;;2.80;99.90;;;;;;4876398;29;20187;-75
2023/03/12 08:31:09;;;;;;;12.23;10.33;;;3.00;99.90;;;;;;4900971;29;20199;-75
2023/03/12 08:33:39;;;;;;;12.17;11.27;;;3.10;99.90;;;;;;4896231;29;20722;-75
2023/03/12 08:36:06;;;;;;;11.03;10.07;;;3.20;99.90;;;;;;4880415;29;20195;-75
2023/03/12 08:38:31;;;;;;;11.73;10.70;;;3.30;99.90;;;;;;4891631;29;20188;-75
2023/03/12 08:40:58;;;;;;;16.03;14.37;;;3.50;99.90;;;;;;4876529;29;20215;-75
2023/03/12 08:43:25;;;;;;;24.20;22.23;;;3.60;99.90;;;;;;4877615;29;20219;-75
2023/03/12 08:45:58;;;;;;;17.77;16.47;;;3.60;99.90;;;;;;4876667;29;20188;-75
2023/03/12 08:48:24;;;;;;;13.47;12.27;;;3.70;99.90;;;;;;4876841;29;20184;-75
2023/03/12 08:50:50;;;;;;;20.97;19.13;;;3.70;99.90;;;;;;4877108;29;20691;-75
2023/03/12 08:53:16;;;;;;;20.67;19.07;;;3.80;99.90;;;;;;4880198;29;20223;-73
2023/03/12 08:55:42;;;;;;;19.83;18.33;;;3.80;99.90;;;;;;4887028;29;20232;-73
2023/03/12 08:58:08;;;;;;;17.93;16.53;;;3.90;99.90;;;;;;4895098;29;20191;-73
2023/03/12 09:00:34;;;;;;;21.67;20.07;;;3.90;99.90;;;;;;4896064;29;20223;-73
2023/03/12 09:03:00;;;;;;;19.27;16.40;;;3.90;99.90;;;;;;4888028;29;20246;-73
2023/03/12 09:05:29;;;;;;;23.00;20.90;;;3.90;99.90;;;;;;4877716;29;20184;-73
2023/03/12 09:07:56;;;;;;;17.87;16.37;;;3.80;99.90;;;;;;4892010;29;20181;-74
2023/03/12 09:10:22;;;;;;;16.10;14.70;;;3.90;99.90;;;;;;4874665;29;20274;-73
2023/03/12 09:12:48;;;;;;;15.10;13.70;;;4.00;99.90;;;;;;4891890;29;20188;-74
2023/03/12 09:15:14;;;;;;;13.60;12.30;;;4.10;99.90;;;;;;4876804;29;20199;-73
2023/03/12 09:17:40;;;;;;;15.90;14.77;;;4.20;99.90;;;;;;4883160;29;20184;-74
2023/03/12 09:20:12;;;;;;;14.13;12.90;;;4.20;99.90;;;;;;4878104;29;20279;-74
2023/03/12 09:22:40;;;;;;;14.60;13.37;;;4.20;99.90;;;;;;4876064;29;20216;-74
2023/03/12 09:25:08;;;;;;;15.07;13.53;;;4.30;99.90;;;;;;4876991;29;20184;-74
2023/03/12 09:27:41;;;;;;;16.60;15.20;;;4.40;99.90;;;;;;4877240;29;20275;-74
2023/03/12 09:30:09;;;;;;;21.77;20.10;;;4.50;99.90;;;;;;4877605;29;20192;-73
2023/03/12 09:32:35;;;;;;;20.27;18.47;;;4.70;99.90;;;;;;4894298;29;20191;-75
2023/03/12 09:35:01;;;;;;;17.30;15.50;;;4.90;99.90;;;;;;4912414;29;20215;-74
2023/03/12 09:37:27;;;;;;;14.27;12.77;;;5.00;99.90;;;;;;4911527;29;20245;-74
2023/03/12 09:39:53;;;;;;;17.07;15.27;;;5.20;99.90;;;;;;4911604;29;20198;-74
2023/03/12 09:42:39;;;;;;;22.30;20.70;;;5.50;99.90;;;;;;4913268;29;20230;-75
2023/03/12 09:45:08;;;;;;;14.67;11.67;;;5.60;99.90;;;;;;4899162;29;20184;-75
2023/03/12 09:47:45;;;;;;;13.90;12.13;;;5.70;99.90;;;;;;4877339;29;20184;-75
2023/03/12 09:50:38;;;;;;;12.50;11.30;;;5.80;99.90;;;;;;4876085;29;20665;-76
2023/03/12 09:53:27;;;;;;;13.10;12.00;;;6.00;99.90;;;;;;4876786;29;20596;-75
2023/03/12 09:55:56;;;;;;;14.87;13.57;;;6.30;99.90;;;;;;4877156;29;20189;-75
2023/03/12 09:58:27;;;;;;;13.00;11.70;;;6.50;99.90;;;;;;4877198;29;20184;-75
2023/03/12 10:01:00;;;;;;;15.47;13.87;;;6.40;99.90;;;;;;4893808;29;20222;-74
2023/03/12 10:03:45;;;;;;;15.10;13.70;;;6.40;99.90;;;;;;4895740;29;20763;-75
2023/03/12 10:06:25;;;;;;;14.40;12.90;;;6.40;99.90;;;;;;4894597;29;20194;-75
2023/03/12 10:08:59;;;;;;;12.50;11.27;;;6.60;99.90;;;;;;4895247;29;20246;-75
2023/03/12 10:11:57;;;;;;;13.13;11.73;;;6.60;99.90;;;;;;4894231;29;20202;-75
2023/03/12 10:14:34;;;;;;;14.07;11.03;;;6.80;99.90;;;;;;4893914;29;20617;-75
2023/03/12 10:17:07;;;;;;;12.63;11.43;;;6.80;99.90;;;;;;4948352;23;20285;-73
2023/03/12 10:19:58;;;;;;;13.53;12.33;;;6.90;99.90;;;;;;4932704;29;20182;-73
2023/03/12 10:22:31;;;;;;;13.80;11.77;;;7.10;99.90;;;;;;4935627;29;20221;-71
2023/03/12 10:25:26;;;;;;;11.40;10.30;;;7.30;99.90;;;;;;4934857;29;20190;-71
2023/03/12 10:27:54;;;;;;;12.03;10.90;;;7.40;99.90;;;;;;4916303;29;20644;-71
2023/03/12 10:30:26;;;;;;;12.53;11.27;;;7.60;99.90;;;;;;4917382;29;20659;-73
2023/03/12 10:33:00;;;;;;;12.20;9.60;;;8.30;99.90;;;;;;4917651;29;20187;-72
2023/03/12 10:35:29;;;;;;;16.37;15.10;;;8.90;99.90;;;;;;4917810;29;20582;-73
2023/03/12 10:38:02;;;;;;;24.33;22.57;;;9.20;99.90;;;;;;4917572;29;20190;-73
2023/03/12 10:40:33;;;;;;;12.43;9.40;;;9.30;99.90;;;;;;4915738;29;20179;-70
2023/03/12 10:42:59;;;;;;;15.17;9.37;;;9.30;99.90;;;;;;4917326;29;20211;-72
2023/03/12 10:45:51;;;;;;;17.00;15.63;;;9.50;99.90;;;;;;4916148;29;20214;-73
2023/03/12 10:48:23;;;;;;;16.30;15.17;;;9.60;99.90;;;;;;4915784;29;20632;-72
2023/03/12 10:51:07;;;;;;;11.17;10.03;;;9.80;99.90;;;;;;4917291;29;20197;-72
2023/03/12 10:53:38;;;;;;;15.07;13.70;;;10.00;99.90;;;;;;4917437;29;20183;-72
2023/03/12 10:56:26;;;;;;;20.93;19.23;;;10.00;99.90;;;;;;4915856;29;20352;-72
2023/03/12 10:58:53;;;;;;;21.57;19.57;;;10.00;99.90;;;;;;4915952;29;20187;-72
2023/03/12 11:01:23;;;;;;;20.33;18.73;;;9.90;99.90;;;;;;4917037;29;20215;-72
2023/03/12 11:03:50;;;;;;;18.03;16.73;;;9.90;99.90;;;;;;4917322;29;20218;-72
2023/03/12 11:06:24;;;;;;;20.00;18.40;;;9.60;99.90;;;;;;4917139;29;20211;-73
2023/03/12 11:09:16;;;;;;;21.97;20.37;;;9.40;99.90;;;;;;4923120;29;20204;-73
2023/03/12 11:11:48;;;;;;;15.00;13.50;;;9.30;99.90;;;;;;4923264;29;20195;-74
2023/03/12 11:14:23;;;;;;;11.07;9.90;;;9.30;99.90;;;;;;4917227;29;20246;-72
2023/03/12 11:16:50;;;;;;;19.43;18.07;;;9.10;99.90;;;;;;4917154;29;20226;-71
2023/03/12 11:19:45;;;;;;;37.20;34.60;;;8.90;99.90;;;;;;4916451;29;20285;-71
2023/03/12 11:22:14;;;;;;;18.77;16.50;;;8.70;99.90;;;;;;4908239;29;20797;-72
2023/03/12 11:25:00;;;;;;;33.57;30.93;;;8.70;99.90;;;;;;4915571;29;20601;-73
2023/03/12 11:27:48;;;;;;;27.23;25.23;;;8.60;99.90;;;;;;4916688;29;20705;-73
2023/03/12 11:30:20;;;;;;;20.20;18.40;;;8.70;99.90;;;;;;4916296;29;20186;-73
2023/03/12 11:32:48;;;;;;;15.07;13.73;;;8.60;99.90;;;;;;4916129;29;20246;-71
2023/03/12 11:35:18;;;;;;;14.23;12.93;;;8.60;99.90;;;;;;4915329;29;20231;-72
2023/03/12 11:38:09;;;;;;;14.73;13.33;;;8.80;99.90;;;;;;4916492;29;20717;-73
2023/03/12 11:40:57;;;;;;;16.77;15.20;;;9.30;99.90;;;;;;4916359;29;20243;-72
2023/03/12 11:43:51;;;;;;;15.63;14.13;;;10.40;99.90;;;;;;4916602;29;20218;-72
2023/03/12 11:46:31;;;;;;;18.43;16.77;;;12.10;99.90;;;;;;4916520;29;20203;-71
2023/03/12 11:49:10;;;;;;;9.93;9.13;;;13.70;99.90;;;;;;4916827;29;20274;-73
2023/03/12 11:52:01;;;;;;;16.10;15.10;;;15.10;99.90;;;;;;4917543;29;20275;-73
2023/03/12 11:54:33;;;;;;;11.30;10.37;;;15.40;99.90;;;;;;4911142;29;20187;-73
2023/03/12 11:57:05;;;;;;;18.13;16.83;;;15.00;99.90;;;;;;4917019;29;20675;-73
2023/03/12 11:59:46;;;;;;;24.13;22.63;;;14.50;99.90;;;;;;4916371;29;20690;-73
2023/03/12 12:02:15;;;;;;;16.83;15.80;;;14.10;99.90;;;;;;4916160;29;20219;-72
2023/03/12 12:04:41;;;;;;;12.60;11.90;;;13.80;99.90;;;;;;4914626;29;20183;-72
2023/03/12 12:07:17;;;;;;;13.00;11.93;;;13.50;99.90;;;;;;4915013;29;20368;-72
2023/03/12 12:09:56;;;;;;;12.00;10.90;;;13.60;99.90;;;;;;4915743;29;20193;-73
2023/03/12 12:12:25;;;;;;;8.93;8.33;;;14.00;99.90;;;;;;4916089;29;20556;-72
2023/03/12 12:15:24;;;;;;;9.40;8.53;;;13.70;99.90;;;;;;4915827;29;20553;-72
2023/03/12 12:17:59;;;;;;;8.67;8.10;;;13.10;99.90;;;;;;4916057;29;20222;-72
2023/03/12 12:20:42;;;;;;;9.23;8.73;;;12.50;99.90;;;;;;4917015;29;20190;-72
2023/03/12 12:23:21;;;;;;;11.60;10.80;;;12.40;99.90;;;;;;4917662;29;20226;-72
2023/03/12 12:26:07;;;;;;;25.03;23.80;;;12.10;99.90;;;;;;4913274;29;20694;-73
2023/03/12 12:28:36;;;;;;;7.93;7.63;;;11.70;99.90;;;;;;4904387;29;20596;-72
2023/03/12 12:31:14;;;;;;;4.87;4.57;;;11.40;99.90;;;;;;4898475;29;20241;-72
2023/03/12 12:34:09;;;;;;;16.87;16.00;;;11.00;99.90;;;;;;4914198;29;20183;-72
2023/03/12 12:36:36;;;;;;;5.00;4.60;;;10.70;99.90;;;;;;4915832;29;20215;-72
2023/03/12 12:39:10;;;;;;;14.43;13.70;;;10.70;99.90;;;;;;4916869;29;20592;-72
2023/03/12 12:41:40;;;;;;;38.40;36.20;;;10.50;99.90;;;;;;4932760;29;20280;-72
2023/03/12 12:44:20;;;;;;;18.87;17.87;;;10.60;99.90;;;;;;4934660;29;20246;-71
2023/03/12 12:47:04;;;;;;;32.83;31.10;;;10.70;99.90;;;;;;4922291;29;20210;-72
2023/03/12 12:49:46;;;;;;;41.40;39.30;;;10.80;99.90;;;;;;4914792;29;20230;-72
2023/03/12 12:52:18;;;;;;;31.17;29.73;;;10.90;99.90;;;;;;4915304;29;20242;-71
2023/03/12 12:55:10;;;;;;;54.63;51.87;;;11.20;99.90;;;;;;4915210;29;20238;-71
2023/03/12 12:57:49;;;;;;;12.27;11.60;;;12.20;99.90;;;;;;4913955;29;20286;-71
2023/03/12 13:00:27;;;;;;;8.07;7.47;;;12.70;99.90;;;;;;4914505;29;20617;-72
2023/03/12 13:02:55;;;;;;;25.73;24.40;;;12.60;99.90;;;;;;4915612;29;20270;-71
2023/03/12 13:05:25;;;;;;;30.00;28.53;;;12.60;99.90;;;;;;4914763;29;20226;-72
2023/03/12 13:07:54;;;;;;;21.70;20.63;;;12.50;99.90;;;;;;4914052;29;20275;-72
2023/03/12 13:10:32;;;;;;;14.47;13.53;;;12.50;99.90;;;;;;4934880;29;20548;-73
2023/03/12 13:13:10;;;;;;;10.30;9.73;;;12.50;99.90;;;;;;4916855;29;20544;-71
2023/03/12 13:15:42;;;;;;;6.60;6.10;;;12.60;99.90;;;;;;4927299;29;20717;-77
2023/03/12 13:18:20;;;;;;;4.73;4.43;;;12.40;99.90;;;;;;4914010;29;20655;-75
2023/03/12 13:20:52;;;;;;;4.80;4.43;;;12.60;99.90;;;;;;4914117;29;20859;-75
2023/03/12 13:23:54;;;;;;;4.63;4.23;;;12.50;99.90;;;;;;4914698;29;20210;-75
2023/03/12 13:26:30;;;;;;;5.23;4.77;;;12.40;99.90;;;;;;4864545;29;20215;-72
2023/03/12 13:29:10;;;;;;;5.97;5.47;;;12.20;99.90;;;;;;4895430;29;20187;-75
2023/03/12 13:31:38;;;;;;;5.03;4.60;;;12.00;99.90;;;;;;4906617;29;20592;-70
2023/03/12 13:34:26;;;;;;;11.57;10.77;;;11.90;99.90;;;;;;4913408;29;20670;-71
2023/03/12 13:36:58;;;;;;;8.33;7.93;;;11.80;99.90;;;;;;4914288;29;20207;-70
2023/03/12 13:39:35;;;;;;;8.80;8.20;;;11.60;99.90;;;;;;4914339;29;20187;-71
2023/03/12 13:42:24;;;;;;;12.70;11.93;;;11.60;99.90;;;;;;4914452;29;20218;-71
2023/03/12 13:44:51;;;;;;;29.90;28.23;;;11.50;99.90;;;;;;4906779;29;20183;-70
2023/03/12 13:47:29;;;;;;;27.27;25.40;;;11.40;99.90;;;;;;4896330;29;20567;-70
2023/03/12 13:49:58;;;;;;;12.50;11.30;;;11.20;99.90;;;;;;4895469;29;20230;-71
2023/03/12 13:52:29;;;;;;;31.57;29.53;;;11.00;99.90;;;;;;4913128;29;20191;-74
2023/03/12 13:55:21;;;;;;;7.03;5.60;;;10.90;99.90;;;;;;4913697;29;20214;-73
2023/03/12 13:57:48;;;;;;;20.40;19.13;;;10.80;99.90;;;;;;4918014;29;20195;-73
2023/03/12 14:00:25;;;;;;;35.80;33.83;;;10.90;99.90;;;;;;4917306;29;20219;-74
2023/03/12 14:02:58;;;;;;;33.93;31.73;;;10.90;99.90;;;;;;4917440;29;20578;-74
2023/03/12 14:05:25;;;;;;;20.80;19.47;;;10.90;99.90;;;;;;4919367;29;20217;-74
2023/03/12 14:08:05;;;;;;;12.87;11.97;;;11.00;99.90;;;;;;4919759;29;20238;-73
2023/03/12 14:10:41;;;;;;;20.43;19.20;;;11.10;99.90;;;;;;4916305;29;20202;-74
2023/03/12 14:13:20;;;;;;;38.87;36.43;;;11.40;99.90;;;;;;4917311;29;20214;-74
2023/03/12 14:16:04;;;;;;;9.97;9.37;;;11.60;99.90;;;;;;4916549;29;20249;-73
2023/03/12 14:18:32;;;;;;;7.37;6.37;;;11.90;99.90;;;;;;4916072;29;20191;-73
2023/03/12 14:21:01;;;;;;;12.97;12.07;;;12.00;99.90;;;;;;4915796;29;20187;-73
2023/03/12 14:23:33;;;;;;;19.73;18.73;;;12.20;99.90;;;;;;4917226;29;20215;-73
2023/03/12 14:26:05;;;;;;;24.90;23.43;;;12.40;99.90;;;;;;4916712;29;20250;-73
2023/03/12 14:28:38;;;;;;;7.50;6.90;;;12.50;99.90;;;;;;4916674;29;20222;-73
2023/03/12 14:31:09;;;;;;;12.27;11.53;;;12.60;99.90;;;;;;4917355;29;20215;-72
2023/03/12 14:33:57;;;;;;;26.30;24.80;;;12.60;99.90;;;;;;4917580;29;20191;-73
2023/03/12 14:36:28;;;;;;;33.93;31.97;;;12.80;99.90;;;;;;4898379;29;20302;-70
2023/03/12 14:39:07;;;;;;;25.93;24.27;;;12.90;99.90;;;;;;4926054;29;20190;-70
2023/03/12 14:41:43;;;;;;;12.40;11.80;;;12.80;99.90;;;;;;4930840;29;20183;-74
2023/03/12 14:44:24;;;;;;;13.70;12.70;;;12.70;99.90;;;;;;4917526;29;20187;-73
2023/03/12 14:47:16;;;;;;;13.90;12.60;;;12.50;99.90;;;;;;4917652;29;20623;-73
2023/03/12 14:49:44;;;;;;;14.70;11.27;;;12.30;99.90;;;;;;4915350;29;20274;-75
2023/03/12 14:52:12;;;;;;;11.83;10.83;;;12.10;99.90;;;;;;4916014;29;20255;-75
2023/03/12 14:54:41;;;;;;;9.33;8.70;;;12.00;99.90;;;;;;4916026;29;20187;-75
2023/03/12 14:57:17;;;;;;;9.80;9.10;;;11.90;99.90;;;;;;4917233;29;20199;-75
2023/03/12 14:59:51;;;;;;;16.83;15.57;;;11.70;99.90;;;;;;4915757;29;20191;-73
2023/03/12 15:02:19;;;;;;;55.90;52.53;;;11.50;99.90;;;;;;4916785;29;20210;-75
2023/03/12 15:04:46;;;;;;;7.87;6.97;;;11.30;99.90;;;;;;4917329;29;20179;-72
2023/03/12 15:07:15;;;;;;;37.93;35.50;;;11.10;99.90;;;;;;4917019;29;20199;-74
2023/03/12 15:09:48;;;;;;;10.17;9.30;;;11.00;99.90;;;;;;4916874;29;20276;-74
2023/03/12 15:12:23;;;;;;;22.57;21.27;;;11.20;99.90;;;;;;4938119;29;20201;-74
2023/03/12 15:14:53;;;;;;;17.20;15.90;;;11.50;99.90;;;;;;4919573;29;20202;-73
2023/03/12 15:17:22;;;;;;;35.70;33.43;;;11.70;99.90;;;;;;4915986;29;20195;-73
2023/03/12 15:19:49;;;;;;;17.23;16.20;;;11.90;99.90;;;;;;4916603;29;20196;-74
2023/03/12 15:22:19;;;;;;;6.30;5.70;;;11.90;99.90;;;;;;4916595;29;20589;-74
2023/03/12 15:24:45;;;;;;;9.60;7.80;;;11.90;99.90;;;;;;4917015;29;20266;-73
2023/03/12 15:27:24;;;;;;;6.27;4.93;;;12.10;99.90;;;;;;4915682;29;20203;-74
2023/03/12 15:29:50;;;;;;;6.27;5.67;;;12.40;99.90;;;;;;4916434;29;20211;-74
2023/03/12 15:32:23;;;;;;;11.73;10.87;;;12.50;99.90;;;;;;4916484;29;20187;-74
2023/03/12 15:34:50;;;;;;;26.63;24.97;;;12.70;99.90;;;;;;4915666;29;20207;-74
2023/03/12 15:37:28;;;;;;;5.87;5.37;;;12.90;99.90;;;;;;4917187;29;20230;-73
2023/03/12 15:39:55;;;;;;;9.53;7.93;;;12.90;99.90;;;;;;4918760;29;20183;-74
2023/03/12 15:42:24;;;;;;;19.60;17.83;;;12.90;99.90;;;;;;4917120;29;20214;-74
2023/03/12 15:45:02;;;;;;;30.30;28.50;;;13.00;99.90;;;;;;4915289;29;20183;-74
2023/03/12 15:47:30;;;;;;;12.23;11.40;;;13.10;99.90;;;;;;4916416;29;20186;-74
2023/03/12 15:50:19;;;;;;;7.73;7.17;;;12.70;99.90;;;;;;4914966;29;20187;-74
2023/03/12 15:53:17;;;;;;;8.43;7.93;;;12.40;99.90;;;;;;4914866;29;20191;-74
2023/03/12 15:56:02;;;;;;;8.13;7.47;;;12.30;99.90;;;;;;4893992;29;20246;-73
2023/03/12 15:58:37;;;;;;;10.30;9.70;;;12.20;99.90;;;;;;4916335;29;20206;-73
2023/03/12 16:01:13;;;;;;;11.53;10.47;;;12.00;99.90;;;;;;4916023;29;20190;-73
2023/03/12 16:03:40;;;;;;;11.33;10.20;;;11.90;99.90;;;;;;4914912;29;20210;-74
2023/03/12 16:06:14;;;;;;;9.97;9.37;;;11.80;99.90;;;;;;4916292;29;20298;-73
2023/03/12 16:08:44;;;;;;;10.37;9.43;;;11.70;99.90;;;;;;4914577;29;20273;-73
2023/03/12 16:11:19;;;;;;;12.40;11.40;;;11.70;99.90;;;;;;4915911;29;20185;-73
2023/03/12 16:13:47;;;;;;;10.47;9.63;;;11.70;99.90;;;;;;4897267;29;20698;-74
2023/03/12 16:16:14;;;;;;;11.40;10.70;;;11.60;99.90;;;;;;4931513;23;20230;-77
2023/03/12 16:18:41;;;;;;;10.67;9.87;;;11.60;99.90;;;;;;4934178;29;20241;-76
2023/03/12 16:21:07;;;;;;;11.83;10.80;;;11.60;99.90;;;;;;4933356;29;20228;-76
2023/03/12 16:23:33;;;;;;;12.10;11.37;;;11.70;99.90;;;;;;4932973;29;20238;-76
2023/03/12 16:26:00;;;;;;;13.70;12.50;;;11.70;99.90;;;;;;4928704;29;20202;-78
2023/03/12 16:28:27;;;;;;;12.40;11.70;;;11.60;99.90;;;;;;4915343;29;20266;-76
2023/03/12 16:30:53;;;;;;;13.90;12.90;;;11.60;99.90;;;;;;4915879;29;20238;-76
2023/03/12 16:33:21;;;;;;;12.60;11.40;;;11.70;99.90;;;;;;4900230;29;20755;-76
2023/03/12 16:35:47;;;;;;;14.53;13.57;;;11.60;99.90;;;;;;4896645;29;20237;-76
2023/03/12 16:38:14;;;;;;;14.10;13.03;;;11.60;99.90;;;;;;4895520;29;20191;-77
2023/03/12 16:40:44;;;;;;;13.50;12.53;;;11.60;99.90;;;;;;4895199;29;20208;-77
2023/03/12 16:43:18;;;;;;;14.87;13.53;;;11.50;99.90;;;;;;4909788;29;20301;-76
2023/03/12 16:45:46;;;;;;;12.63;11.67;;;11.50;99.90;;;;;;4915503;29;20211;-76
2023/03/12 16:48:19;;;;;;;11.17;10.20;;;11.50;99.90;;;;;;4915748;29;20525;-77
2023/03/12 16:50:48;;;;;;;11.47;10.43;;;11.50;99.90;;;;;;4915574;29;20616;-77
2023/03/12 16:53:14;;;;;;;11.70;10.73;;;11.40;99.90;;;;;;4901149;29;20200;-76
2023/03/12 16:55:54;;;;;;;11.37;10.23;;;11.40;99.90;;;;;;4897206;29;20212;-77
2023/03/12 16:58:22;;;;;;;12.70;11.47;;;11.40;99.90;;;;;;4896753;29;20227;-76
2023/03/12 17:00:49;;;;;;;10.93;10.13;;;11.40;99.90;;;;;;4896375;29;20214;-77